sensor_id;sensor_type;location;lat;lon;timestamp;P1;durP1;ratioP1;P2;durP2;ratioP2
66429;SDS011;53242;51.694;10.006;2023-04-06T00:00:42;8.45;;;3.40;;
66429;SDS011;53242;51.694;10.006;2023-04-06T00:03:05;10.23;;;3.42;;
66429;SDS011;53242;51.694;10.006;2023-04-06T00:05:27;9.48;;;3.35;;
66429;SDS011;53242;51.694;10.006;2023-04-06T00:07:52;8.93;;;3.70;;
66429;SDS011;53242;51.694;10.006;2023-04-06T00:10:16;9.73;;;3.97;;
66429;SDS011;53242;51.694;10.006;2023-04-06T00:12:39;10.00;;;3.90;;
66429;SDS011;53242;51.694;10.006;2023-04-06T00:15:01;10.85;;;3.30;;
66429;SDS011;53242;51.694;10.006;2023-04-06T00:17:24;6.28;;;2.83;;
66429;SDS011;53242;51.694;10.006;2023-04-06T00:19:46;9.63;;;3.78;;
66429;SDS011;53242;51.694;10.006;2023-04-06T00:22:09;8.93;;;3.80;;
66429;SDS011;53242;51.694;10.006;2023-04-06T00:24:31;9.73;;;3.33;;
66429;SDS011;53242;51.694;10.006;2023-04-06T00:26:54;5.28;;;2.40;;
66429;SDS011;53242;51.694;10.006;2023-04-06T00:29:17;8.25;;;3.58;;
66429;SDS011;53242;51.694;10.006;2023-04-06T00:31:39;9.10;;;3.83;;
66429;SDS011;53242;51.694;10.006;2023-04-06T00:34:02;10.30;;;4.13;;
66429;SDS011;53242;51.694;10.006;2023-04-06T00:36:24;9.95;;;3.40;;
66429;SDS011;53242;51.694;10.006;2023-04-06T00:38:47;10.18;;;4.13;;
66429;SDS011;53242;51.694;10.006;2023-04-06T00:41:10;10.32;;;4.05;;
66429;SDS011;53242;51.694;10.006;2023-04-06T00:43:32;11.45;;;3.95;;
66429;SDS011;53242;51.694;10.006;2023-04-06T00:45:55;8.32;;;3.70;;
66429;SDS011;53242;51.694;10.006;2023-04-06T00:48:17;10.25;;;3.88;;
66429;SDS011;53242;51.694;10.006;2023-04-06T00:50:40;7.72;;;4.13;;
66429;SDS011;53242;51.694;10.006;2023-04-06T00:53:02;7.90;;;3.17;;
66429;SDS011;53242;51.694;10.006;2023-04-06T00:55:26;10.15;;;3.95;;
66429;SDS011;53242;51.694;10.006;2023-04-06T00:57:48;11.35;;;4.53;;
66429;SDS011;53242;51.694;10.006;2023-04-06T01:00:12;11.88;;;4.35;;
66429;SDS011;53242;51.694;10.006;2023-04-06T01:02:36;10.02;;;3.92;;
66429;SDS011;53242;51.694;10.006;2023-04-06T01:04:59;9.80;;;3.90;;
66429;SDS011;53242;51.694;10.006;2023-04-06T01:07:32;9.07;;;4.10;;
66429;SDS011;53242;51.694;10.006;2023-04-06T01:10:27;11.23;;;4.88;;
66429;SDS011;53242;51.694;10.006;2023-04-06T01:13:07;12.05;;;4.32;;
66429;SDS011;53242;51.694;10.006;2023-04-06T01:15:42;10.95;;;4.50;;
66429;SDS011;53242;51.694;10.006;2023-04-06T01:18:09;11.23;;;4.20;;
66429;SDS011;53242;51.694;10.006;2023-04-06T01:20:42;10.68;;;3.92;;
66429;SDS011;53242;51.694;10.006;2023-04-06T01:23:05;11.32;;;4.63;;
66429;SDS011;53242;51.694;10.006;2023-04-06T01:25:28;12.60;;;4.53;;
66429;SDS011;53242;51.694;10.006;2023-04-06T01:28:01;9.82;;;3.83;;
66429;SDS011;53242;51.694;10.006;2023-04-06T01:30:41;10.48;;;4.30;;
66429;SDS011;53242;51.694;10.006;2023-04-06T01:33:13;12.05;;;3.72;;
66429;SDS011;53242;51.694;10.006;2023-04-06T01:35:54;10.32;;;3.90;;
66429;SDS011;53242;51.694;10.006;2023-04-06T01:38:17;11.38;;;4.50;;
66429;SDS011;53242;51.694;10.006;2023-04-06T01:40:41;12.23;;;4.30;;
66429;SDS011;53242;51.694;10.006;2023-04-06T01:43:03;9.38;;;3.65;;
66429;SDS011;53242;51.694;10.006;2023-04-06T01:45:36;11.07;;;4.38;;
66429;SDS011;53242;51.694;10.006;2023-04-06T01:48:08;11.90;;;4.60;;
66429;SDS011;53242;51.694;10.006;2023-04-06T01:50:31;11.63;;;4.65;;
66429;SDS011;53242;51.694;10.006;2023-04-06T01:52:53;12.15;;;4.57;;
66429;SDS011;53242;51.694;10.006;2023-04-06T01:55:17;10.55;;;4.45;;
66429;SDS011;53242;51.694;10.006;2023-04-06T01:58:05;11.20;;;4.35;;
66429;SDS011;53242;51.694;10.006;2023-04-06T02:00:32;12.55;;;4.43;;
66429;SDS011;53242;51.694;10.006;2023-04-06T02:02:55;12.38;;;4.55;;
66429;SDS011;53242;51.694;10.006;2023-04-06T02:05:21;13.60;;;4.72;;
66429;SDS011;53242;51.694;10.006;2023-04-06T02:07:44;12.73;;;4.65;;
66429;SDS011;53242;51.694;10.006;2023-04-06T02:10:11;12.27;;;4.72;;
66429;SDS011;53242;51.694;10.006;2023-04-06T02:12:35;12.60;;;4.47;;
66429;SDS011;53242;51.694;10.006;2023-04-06T02:14:58;11.77;;;4.53;;
66429;SDS011;53242;51.694;10.006;2023-04-06T02:17:20;10.65;;;4.38;;
66429;SDS011;53242;51.694;10.006;2023-04-06T02:19:43;9.77;;;4.47;;
66429;SDS011;53242;51.694;10.006;2023-04-06T02:22:05;12.38;;;4.65;;
66429;SDS011;53242;51.694;10.006;2023-04-06T02:24:28;9.88;;;3.92;;
66429;SDS011;53242;51.694;10.006;2023-04-06T02:26:51;12.27;;;4.90;;
66429;SDS011;53242;51.694;10.006;2023-04-06T02:29:13;12.75;;;4.85;;
66429;SDS011;53242;51.694;10.006;2023-04-06T02:31:36;9.75;;;3.92;;
66429;SDS011;53242;51.694;10.006;2023-04-06T02:33:59;11.57;;;4.28;;
66429;SDS011;53242;51.694;10.006;2023-04-06T02:36:23;10.35;;;4.82;;
66429;SDS011;53242;51.694;10.006;2023-04-06T02:38:47;10.52;;;4.40;;
66429;SDS011;53242;51.694;10.006;2023-04-06T02:41:09;13.35;;;4.75;;
66429;SDS011;53242;51.694;10.006;2023-04-06T02:43:33;11.43;;;4.47;;
66429;SDS011;53242;51.694;10.006;2023-04-06T02:46:08;11.75;;;5.13;;
66429;SDS011;53242;51.694;10.006;2023-04-06T02:48:34;12.35;;;4.40;;
66429;SDS011;53242;51.694;10.006;2023-04-06T02:53:21;10.45;;;4.05;;
66429;SDS011;53242;51.694;10.006;2023-04-06T02:55:43;13.48;;;5.22;;
66429;SDS011;53242;51.694;10.006;2023-04-06T02:58:06;11.38;;;5.20;;
66429;SDS011;53242;51.694;10.006;2023-04-06T03:00:38;11.77;;;4.57;;
66429;SDS011;53242;51.694;10.006;2023-04-06T03:03:01;12.90;;;5.10;;
66429;SDS011;53242;51.694;10.006;2023-04-06T03:05:23;9.13;;;3.75;;
66429;SDS011;53242;51.694;10.006;2023-04-06T03:07:46;9.98;;;4.63;;
66429;SDS011;53242;51.694;10.006;2023-04-06T03:10:15;10.25;;;4.70;;
66429;SDS011;53242;51.694;10.006;2023-04-06T03:12:40;12.00;;;5.10;;
66429;SDS011;53242;51.694;10.006;2023-04-06T03:15:13;12.85;;;4.93;;
66429;SDS011;53242;51.694;10.006;2023-04-06T03:17:40;11.18;;;4.85;;
66429;SDS011;53242;51.694;10.006;2023-04-06T03:20:08;10.40;;;5.03;;
66429;SDS011;53242;51.694;10.006;2023-04-06T03:22:31;12.93;;;5.28;;
66429;SDS011;53242;51.694;10.006;2023-04-06T03:24:53;13.60;;;5.20;;
66429;SDS011;53242;51.694;10.006;2023-04-06T03:27:16;13.90;;;4.93;;
66429;SDS011;53242;51.694;10.006;2023-04-06T03:29:40;13.52;;;5.40;;
66429;SDS011;53242;51.694;10.006;2023-04-06T03:32:05;13.20;;;5.13;;
66429;SDS011;53242;51.694;10.006;2023-04-06T03:34:32;14.00;;;5.25;;
66429;SDS011;53242;51.694;10.006;2023-04-06T03:36:55;15.13;;;5.57;;
66429;SDS011;53242;51.694;10.006;2023-04-06T03:39:17;12.90;;;4.93;;
66429;SDS011;53242;51.694;10.006;2023-04-06T03:41:39;12.55;;;5.32;;
66429;SDS011;53242;51.694;10.006;2023-04-06T03:44:13;16.88;;;5.93;;
66429;SDS011;53242;51.694;10.006;2023-04-06T03:46:35;12.63;;;4.75;;
66429;SDS011;53242;51.694;10.006;2023-04-06T03:48:58;10.40;;;4.82;;
66429;SDS011;53242;51.694;10.006;2023-04-06T03:51:20;11.07;;;4.72;;
66429;SDS011;53242;51.694;10.006;2023-04-06T03:53:43;12.82;;;4.97;;
66429;SDS011;53242;51.694;10.006;2023-04-06T03:56:07;12.48;;;5.47;;
66429;SDS011;53242;51.694;10.006;2023-04-06T03:58:29;13.95;;;5.70;;
66429;SDS011;53242;51.694;10.006;2023-04-06T04:00:51;14.35;;;5.35;;
66429;SDS011;53242;51.694;10.006;2023-04-06T04:03:14;16.17;;;5.82;;
66429;SDS011;53242;51.694;10.006;2023-04-06T04:05:38;12.98;;;5.18;;
66429;SDS011;53242;51.694;10.006;2023-04-06T04:08:00;14.07;;;5.28;;
66429;SDS011;53242;51.694;10.006;2023-04-06T04:10:23;13.30;;;5.25;;
66429;SDS011;53242;51.694;10.006;2023-04-06T04:12:45;12.27;;;5.15;;
66429;SDS011;53242;51.694;10.006;2023-04-06T04:15:08;14.10;;;5.47;;
66429;SDS011;53242;51.694;10.006;2023-04-06T04:17:30;13.80;;;4.68;;
66429;SDS011;53242;51.694;10.006;2023-04-06T04:19:53;13.27;;;5.40;;
66429;SDS011;53242;51.694;10.006;2023-04-06T04:22:15;12.68;;;5.35;;
66429;SDS011;53242;51.694;10.006;2023-04-06T04:24:38;12.23;;;5.15;;
66429;SDS011;53242;51.694;10.006;2023-04-06T04:27:01;14.43;;;5.30;;
66429;SDS011;53242;51.694;10.006;2023-04-06T04:29:26;13.18;;;5.32;;
66429;SDS011;53242;51.694;10.006;2023-04-06T04:31:49;14.50;;;4.93;;
66429;SDS011;53242;51.694;10.006;2023-04-06T04:34:13;14.38;;;5.65;;
66429;SDS011;53242;51.694;10.006;2023-04-06T04:36:37;12.95;;;4.78;;
66429;SDS011;53242;51.694;10.006;2023-04-06T04:39:03;14.35;;;5.35;;
66429;SDS011;53242;51.694;10.006;2023-04-06T04:41:30;13.48;;;5.13;;
66429;SDS011;53242;51.694;10.006;2023-04-06T04:43:53;10.80;;;4.15;;
66429;SDS011;53242;51.694;10.006;2023-04-06T04:46:18;15.55;;;5.50;;
66429;SDS011;53242;51.694;10.006;2023-04-06T04:48:41;15.88;;;5.60;;
66429;SDS011;53242;51.694;10.006;2023-04-06T04:51:04;13.65;;;5.43;;
66429;SDS011;53242;51.694;10.006;2023-04-06T04:53:39;14.90;;;5.65;;
66429;SDS011;53242;51.694;10.006;2023-04-06T04:56:12;15.98;;;5.57;;
66429;SDS011;53242;51.694;10.006;2023-04-06T04:58:35;15.90;;;6.10;;
66429;SDS011;53242;51.694;10.006;2023-04-06T05:00:58;15.32;;;6.03;;
66429;SDS011;53242;51.694;10.006;2023-04-06T05:03:22;15.88;;;5.75;;
66429;SDS011;53242;51.694;10.006;2023-04-06T05:05:56;13.05;;;5.45;;
66429;SDS011;53242;51.694;10.006;2023-04-06T05:08:25;14.20;;;5.18;;
66429;SDS011;53242;51.694;10.006;2023-04-06T05:10:47;15.65;;;5.10;;
66429;SDS011;53242;51.694;10.006;2023-04-06T05:13:10;9.95;;;4.70;;
66429;SDS011;53242;51.694;10.006;2023-04-06T05:15:33;11.52;;;4.93;;
66429;SDS011;53242;51.694;10.006;2023-04-06T05:18:07;10.23;;;4.10;;
66429;SDS011;53242;51.694;10.006;2023-04-06T05:20:31;12.70;;;4.93;;
66429;SDS011;53242;51.694;10.006;2023-04-06T05:22:55;10.18;;;3.95;;
66429;SDS011;53242;51.694;10.006;2023-04-06T05:25:17;10.43;;;4.00;;
66429;SDS011;53242;51.694;10.006;2023-04-06T05:27:41;15.45;;;5.93;;
66429;SDS011;53242;51.694;10.006;2023-04-06T05:30:15;13.65;;;5.60;;
66429;SDS011;53242;51.694;10.006;2023-04-06T05:32:41;16.83;;;5.70;;
66429;SDS011;53242;51.694;10.006;2023-04-06T05:35:05;14.57;;;5.75;;
66429;SDS011;53242;51.694;10.006;2023-04-06T05:37:29;16.65;;;6.28;;
66429;SDS011;53242;51.694;10.006;2023-04-06T05:39:51;16.27;;;5.90;;
66429;SDS011;53242;51.694;10.006;2023-04-06T05:42:15;12.02;;;5.15;;
66429;SDS011;53242;51.694;10.006;2023-04-06T05:44:46;16.15;;;5.82;;
66429;SDS011;53242;51.694;10.006;2023-04-06T05:47:11;14.30;;;5.53;;
66429;SDS011;53242;51.694;10.006;2023-04-06T05:49:35;15.15;;;6.13;;
66429;SDS011;53242;51.694;10.006;2023-04-06T05:51:58;15.82;;;6.00;;
66429;SDS011;53242;51.694;10.006;2023-04-06T05:54:20;15.38;;;5.85;;
66429;SDS011;53242;51.694;10.006;2023-04-06T05:56:43;12.93;;;5.25;;
66429;SDS011;53242;51.694;10.006;2023-04-06T05:59:07;12.52;;;5.38;;
66429;SDS011;53242;51.694;10.006;2023-04-06T06:01:30;15.48;;;6.35;;
66429;SDS011;53242;51.694;10.006;2023-04-06T06:03:53;17.63;;;5.63;;
66429;SDS011;53242;51.694;10.006;2023-04-06T06:06:16;14.23;;;5.47;;
66429;SDS011;53242;51.694;10.006;2023-04-06T06:08:53;17.17;;;6.47;;
66429;SDS011;53242;51.694;10.006;2023-04-06T06:11:16;18.40;;;6.57;;
66429;SDS011;53242;51.694;10.006;2023-04-06T06:13:38;15.48;;;6.28;;
66429;SDS011;53242;51.694;10.006;2023-04-06T06:16:01;13.32;;;5.32;;
66429;SDS011;53242;51.694;10.006;2023-04-06T06:18:28;14.52;;;6.18;;
66429;SDS011;53242;51.694;10.006;2023-04-06T06:20:51;15.75;;;6.28;;
66429;SDS011;53242;51.694;10.006;2023-04-06T06:23:14;14.93;;;5.60;;
66429;SDS011;53242;51.694;10.006;2023-04-06T06:25:36;16.17;;;6.47;;
66429;SDS011;53242;51.694;10.006;2023-04-06T06:27:59;15.02;;;5.30;;
66429;SDS011;53242;51.694;10.006;2023-04-06T06:30:24;15.65;;;5.25;;
66429;SDS011;53242;51.694;10.006;2023-04-06T06:32:47;11.30;;;4.93;;
66429;SDS011;53242;51.694;10.006;2023-04-06T06:35:09;11.05;;;4.47;;
66429;SDS011;53242;51.694;10.006;2023-04-06T06:37:32;12.85;;;5.13;;
66429;SDS011;53242;51.694;10.006;2023-04-06T06:39:56;10.15;;;3.97;;
66429;SDS011;53242;51.694;10.006;2023-04-06T06:42:18;9.90;;;3.55;;
66429;SDS011;53242;51.694;10.006;2023-04-06T06:44:56;11.13;;;5.03;;
66429;SDS011;53242;51.694;10.006;2023-04-06T06:47:20;5.90;;;2.55;;
66429;SDS011;53242;51.694;10.006;2023-04-06T06:49:42;12.00;;;4.85;;
66429;SDS011;53242;51.694;10.006;2023-04-06T06:52:05;13.75;;;5.40;;
66429;SDS011;53242;51.694;10.006;2023-04-06T06:54:27;8.18;;;3.88;;
66429;SDS011;53242;51.694;10.006;2023-04-06T06:56:49;11.43;;;5.38;;
66429;SDS011;53242;51.694;10.006;2023-04-06T06:59:12;14.23;;;5.38;;
66429;SDS011;53242;51.694;10.006;2023-04-06T07:01:36;11.82;;;5.15;;
66429;SDS011;53242;51.694;10.006;2023-04-06T07:03:59;15.45;;;5.82;;
66429;SDS011;53242;51.694;10.006;2023-04-06T07:06:21;10.60;;;4.65;;
66429;SDS011;53242;51.694;10.006;2023-04-06T07:08:44;12.07;;;4.70;;
66429;SDS011;53242;51.694;10.006;2023-04-06T07:11:06;10.68;;;4.80;;
66429;SDS011;53242;51.694;10.006;2023-04-06T07:13:29;12.93;;;5.13;;
66429;SDS011;53242;51.694;10.006;2023-04-06T07:18:16;9.68;;;4.55;;
66429;SDS011;53242;51.694;10.006;2023-04-06T07:23:03;14.73;;;5.90;;
66429;SDS011;53242;51.694;10.006;2023-04-06T07:25:25;14.90;;;6.32;;
66429;SDS011;53242;51.694;10.006;2023-04-06T07:27:48;16.02;;;6.53;;
66429;SDS011;53242;51.694;10.006;2023-04-06T07:30:11;16.88;;;6.78;;
66429;SDS011;53242;51.694;10.006;2023-04-06T07:32:33;14.75;;;6.45;;
66429;SDS011;53242;51.694;10.006;2023-04-06T07:34:57;14.73;;;6.68;;
66429;SDS011;53242;51.694;10.006;2023-04-06T07:37:20;15.82;;;6.22;;
66429;SDS011;53242;51.694;10.006;2023-04-06T07:39:43;16.48;;;6.28;;
66429;SDS011;53242;51.694;10.006;2023-04-06T07:42:07;12.50;;;5.70;;
66429;SDS011;53242;51.694;10.006;2023-04-06T07:44:30;12.07;;;5.35;;
66429;SDS011;53242;51.694;10.006;2023-04-06T07:46:53;14.80;;;6.07;;
66429;SDS011;53242;51.694;10.006;2023-04-06T07:51:40;13.25;;;5.38;;
66429;SDS011;53242;51.694;10.006;2023-04-06T07:54:02;14.23;;;5.63;;
66429;SDS011;53242;51.694;10.006;2023-04-06T07:56:25;11.65;;;4.80;;
66429;SDS011;53242;51.694;10.006;2023-04-06T07:58:48;12.23;;;5.00;;
66429;SDS011;53242;51.694;10.006;2023-04-06T08:01:10;14.20;;;5.38;;
66429;SDS011;53242;51.694;10.006;2023-04-06T08:03:33;11.95;;;5.18;;
66429;SDS011;53242;51.694;10.006;2023-04-06T08:05:56;14.73;;;5.38;;
66429;SDS011;53242;51.694;10.006;2023-04-06T08:08:19;10.18;;;4.90;;
66429;SDS011;53242;51.694;10.006;2023-04-06T08:10:43;12.90;;;5.22;;
66429;SDS011;53242;51.694;10.006;2023-04-06T08:13:05;11.10;;;5.22;;
66429;SDS011;53242;51.694;10.006;2023-04-06T08:15:28;12.23;;;5.97;;
66429;SDS011;53242;51.694;10.006;2023-04-06T08:17:51;13.80;;;5.38;;
66429;SDS011;53242;51.694;10.006;2023-04-06T08:20:13;12.05;;;4.60;;
66429;SDS011;53242;51.694;10.006;2023-04-06T08:22:36;11.82;;;5.20;;
66429;SDS011;53242;51.694;10.006;2023-04-06T08:24:58;13.15;;;5.43;;
66429;SDS011;53242;51.694;10.006;2023-04-06T08:27:21;13.60;;;5.68;;
66429;SDS011;53242;51.694;10.006;2023-04-06T08:29:43;12.45;;;5.65;;
66429;SDS011;53242;51.694;10.006;2023-04-06T08:32:06;11.48;;;5.20;;
66429;SDS011;53242;51.694;10.006;2023-04-06T08:34:28;11.55;;;4.72;;
66429;SDS011;53242;51.694;10.006;2023-04-06T08:36:51;10.05;;;4.65;;
66429;SDS011;53242;51.694;10.006;2023-04-06T08:39:14;13.05;;;5.45;;
66429;SDS011;53242;51.694;10.006;2023-04-06T08:41:37;12.05;;;5.35;;
66429;SDS011;53242;51.694;10.006;2023-04-06T08:44:00;13.82;;;5.93;;
66429;SDS011;53242;51.694;10.006;2023-04-06T08:48:51;14.35;;;5.90;;
66429;SDS011;53242;51.694;10.006;2023-04-06T08:51:14;12.90;;;5.43;;
66429;SDS011;53242;51.694;10.006;2023-04-06T08:53:37;13.48;;;5.50;;
66429;SDS011;53242;51.694;10.006;2023-04-06T08:56:00;13.27;;;5.45;;
66429;SDS011;53242;51.694;10.006;2023-04-06T08:58:23;14.23;;;5.82;;
66429;SDS011;53242;51.694;10.006;2023-04-06T09:00:47;12.05;;;5.32;;
66429;SDS011;53242;51.694;10.006;2023-04-06T09:03:12;13.50;;;5.32;;
66429;SDS011;53242;51.694;10.006;2023-04-06T09:05:35;13.25;;;5.40;;
66429;SDS011;53242;51.694;10.006;2023-04-06T09:07:58;15.40;;;6.05;;
66429;SDS011;53242;51.694;10.006;2023-04-06T09:10:21;11.32;;;5.80;;
66429;SDS011;53242;51.694;10.006;2023-04-06T09:12:45;15.45;;;6.20;;
66429;SDS011;53242;51.694;10.006;2023-04-06T09:15:17;15.40;;;5.75;;
66429;SDS011;53242;51.694;10.006;2023-04-06T09:17:43;13.27;;;5.50;;
66429;SDS011;53242;51.694;10.006;2023-04-06T09:20:06;14.13;;;5.53;;
66429;SDS011;53242;51.694;10.006;2023-04-06T09:22:36;14.73;;;5.72;;
66429;SDS011;53242;51.694;10.006;2023-04-06T09:24:59;13.63;;;5.68;;
66429;SDS011;53242;51.694;10.006;2023-04-06T09:27:31;13.57;;;5.80;;
66429;SDS011;53242;51.694;10.006;2023-04-06T09:30:05;13.15;;;5.15;;
66429;SDS011;53242;51.694;10.006;2023-04-06T09:32:29;12.32;;;5.20;;
66429;SDS011;53242;51.694;10.006;2023-04-06T09:34:51;11.85;;;5.45;;
66429;SDS011;53242;51.694;10.006;2023-04-06T09:37:14;13.05;;;5.43;;
66429;SDS011;53242;51.694;10.006;2023-04-06T09:39:38;13.07;;;5.53;;
66429;SDS011;53242;51.694;10.006;2023-04-06T09:42:00;12.48;;;5.38;;
66429;SDS011;53242;51.694;10.006;2023-04-06T09:44:22;11.40;;;5.30;;
66429;SDS011;53242;51.694;10.006;2023-04-06T09:46:46;13.18;;;4.88;;
66429;SDS011;53242;51.694;10.006;2023-04-06T09:49:09;13.00;;;5.32;;
66429;SDS011;53242;51.694;10.006;2023-04-06T09:51:55;13.48;;;5.60;;
66429;SDS011;53242;51.694;10.006;2023-04-06T09:54:22;14.88;;;6.18;;
66429;SDS011;53242;51.694;10.006;2023-04-06T09:57:07;12.45;;;5.43;;
66429;SDS011;53242;51.694;10.006;2023-04-06T10:02:13;12.43;;;5.35;;
66429;SDS011;53242;51.694;10.006;2023-04-06T10:04:43;14.30;;;5.28;;
66429;SDS011;53242;51.694;10.006;2023-04-06T10:07:14;11.98;;;4.72;;
66429;SDS011;53242;51.694;10.006;2023-04-06T10:09:37;11.20;;;5.00;;
66429;SDS011;53242;51.694;10.006;2023-04-06T10:12:00;12.48;;;5.13;;
66429;SDS011;53242;51.694;10.006;2023-04-06T10:14:26;12.70;;;5.28;;
66429;SDS011;53242;51.694;10.006;2023-04-06T10:16:49;11.80;;;4.88;;
66429;SDS011;53242;51.694;10.006;2023-04-06T10:19:13;10.27;;;4.63;;
66429;SDS011;53242;51.694;10.006;2023-04-06T10:21:40;13.30;;;5.72;;
66429;SDS011;53242;51.694;10.006;2023-04-06T10:24:06;11.90;;;4.68;;
66429;SDS011;53242;51.694;10.006;2023-04-06T10:26:32;10.98;;;4.65;;
66429;SDS011;53242;51.694;10.006;2023-04-06T10:28:55;12.73;;;4.35;;
66429;SDS011;53242;51.694;10.006;2023-04-06T10:31:24;9.85;;;4.00;;
66429;SDS011;53242;51.694;10.006;2023-04-06T10:33:56;13.02;;;4.47;;
66429;SDS011;53242;51.694;10.006;2023-04-06T10:36:24;12.18;;;4.63;;
66429;SDS011;53242;51.694;10.006;2023-04-06T10:38:53;11.70;;;5.43;;
66429;SDS011;53242;51.694;10.006;2023-04-06T10:41:17;12.05;;;4.47;;
66429;SDS011;53242;51.694;10.006;2023-04-06T10:43:40;10.95;;;4.57;;
66429;SDS011;53242;51.694;10.006;2023-04-06T10:46:04;7.93;;;3.08;;
66429;SDS011;53242;51.694;10.006;2023-04-06T10:48:38;12.15;;;4.53;;
66429;SDS011;53242;51.694;10.006;2023-04-06T10:51:06;11.98;;;5.20;;
66429;SDS011;53242;51.694;10.006;2023-04-06T10:53:30;11.60;;;4.78;;
66429;SDS011;53242;51.694;10.006;2023-04-06T10:55:55;13.63;;;4.90;;
66429;SDS011;53242;51.694;10.006;2023-04-06T10:58:19;10.88;;;4.63;;
66429;SDS011;53242;51.694;10.006;2023-04-06T11:00:45;9.77;;;5.03;;
66429;SDS011;53242;51.694;10.006;2023-04-06T11:03:08;13.23;;;5.15;;
66429;SDS011;53242;51.694;10.006;2023-04-06T11:05:31;12.15;;;4.82;;
66429;SDS011;53242;51.694;10.006;2023-04-06T11:07:55;12.38;;;5.22;;
66429;SDS011;53242;51.694;10.006;2023-04-06T11:10:21;12.93;;;4.82;;
66429;SDS011;53242;51.694;10.006;2023-04-06T11:12:44;12.43;;;5.13;;
66429;SDS011;53242;51.694;10.006;2023-04-06T11:15:13;11.82;;;4.97;;
66429;SDS011;53242;51.694;10.006;2023-04-06T11:17:36;10.57;;;4.55;;
66429;SDS011;53242;51.694;10.006;2023-04-06T11:19:59;11.30;;;5.15;;
66429;SDS011;53242;51.694;10.006;2023-04-06T11:22:21;13.57;;;5.43;;
66429;SDS011;53242;51.694;10.006;2023-04-06T11:24:44;12.75;;;4.88;;
66429;SDS011;53242;51.694;10.006;2023-04-06T11:27:07;11.85;;;5.32;;
66429;SDS011;53242;51.694;10.006;2023-04-06T11:29:30;13.93;;;4.90;;
66429;SDS011;53242;51.694;10.006;2023-04-06T11:31:57;10.80;;;4.90;;
66429;SDS011;53242;51.694;10.006;2023-04-06T11:34:21;13.98;;;4.65;;
66429;SDS011;53242;51.694;10.006;2023-04-06T11:36:45;12.52;;;5.57;;
66429;SDS011;53242;51.694;10.006;2023-04-06T11:39:09;12.43;;;5.15;;
66429;SDS011;53242;51.694;10.006;2023-04-06T11:41:32;12.25;;;4.80;;
66429;SDS011;53242;51.694;10.006;2023-04-06T11:43:55;13.77;;;4.85;;
66429;SDS011;53242;51.694;10.006;2023-04-06T11:46:18;13.73;;;5.13;;
66429;SDS011;53242;51.694;10.006;2023-04-06T11:48:44;12.90;;;5.18;;
66429;SDS011;53242;51.694;10.006;2023-04-06T11:51:07;10.55;;;4.32;;
66429;SDS011;53242;51.694;10.006;2023-04-06T11:53:29;11.02;;;3.80;;
66429;SDS011;53242;51.694;10.006;2023-04-06T11:55:52;13.02;;;5.00;;
66429;SDS011;53242;51.694;10.006;2023-04-06T11:58:14;12.90;;;5.10;;
66429;SDS011;53242;51.694;10.006;2023-04-06T12:00:37;12.75;;;4.78;;
66429;SDS011;53242;51.694;10.006;2023-04-06T12:02:59;12.30;;;4.60;;
66429;SDS011;53242;51.694;10.006;2023-04-06T12:05:22;12.82;;;5.18;;
66429;SDS011;53242;51.694;10.006;2023-04-06T12:07:45;12.52;;;5.15;;
66429;SDS011;53242;51.694;10.006;2023-04-06T12:10:08;12.40;;;5.68;;
66429;SDS011;53242;51.694;10.006;2023-04-06T12:12:31;13.18;;;5.32;;
66429;SDS011;53242;51.694;10.006;2023-04-06T12:14:53;12.02;;;4.13;;
66429;SDS011;53242;51.694;10.006;2023-04-06T12:17:17;11.95;;;5.03;;
66429;SDS011;53242;51.694;10.006;2023-04-06T12:19:40;12.60;;;4.78;;
66429;SDS011;53242;51.694;10.006;2023-04-06T12:22:03;12.43;;;5.07;;
66429;SDS011;53242;51.694;10.006;2023-04-06T12:24:26;10.63;;;4.57;;
66429;SDS011;53242;51.694;10.006;2023-04-06T12:26:49;12.70;;;4.90;;
66429;SDS011;53242;51.694;10.006;2023-04-06T12:29:12;13.05;;;4.75;;
66429;SDS011;53242;51.694;10.006;2023-04-06T12:31:35;9.02;;;3.88;;
66429;SDS011;53242;51.694;10.006;2023-04-06T12:33:58;12.55;;;5.20;;
66429;SDS011;53242;51.694;10.006;2023-04-06T12:36:20;12.63;;;5.50;;
66429;SDS011;53242;51.694;10.006;2023-04-06T12:38:43;12.40;;;5.43;;
66429;SDS011;53242;51.694;10.006;2023-04-06T12:41:07;12.25;;;5.22;;
66429;SDS011;53242;51.694;10.006;2023-04-06T12:43:30;15.40;;;6.03;;
66429;SDS011;53242;51.694;10.006;2023-04-06T12:45:52;10.85;;;4.68;;
66429;SDS011;53242;51.694;10.006;2023-04-06T12:48:15;12.07;;;5.28;;
66429;SDS011;53242;51.694;10.006;2023-04-06T12:50:37;13.23;;;4.63;;
66429;SDS011;53242;51.694;10.006;2023-04-06T12:53:00;12.43;;;5.65;;
66429;SDS011;53242;51.694;10.006;2023-04-06T12:55:22;13.73;;;4.90;;
66429;SDS011;53242;51.694;10.006;2023-04-06T12:57:45;13.88;;;5.50;;
66429;SDS011;53242;51.694;10.006;2023-04-06T13:00:07;14.27;;;5.93;;
66429;SDS011;53242;51.694;10.006;2023-04-06T13:02:30;11.82;;;5.13;;
66429;SDS011;53242;51.694;10.006;2023-04-06T13:04:56;12.65;;;5.10;;
66429;SDS011;53242;51.694;10.006;2023-04-06T13:07:18;12.15;;;5.40;;
66429;SDS011;53242;51.694;10.006;2023-04-06T13:09:44;11.65;;;4.78;;
66429;SDS011;53242;51.694;10.006;2023-04-06T13:12:09;12.43;;;5.60;;
66429;SDS011;53242;51.694;10.006;2023-04-06T13:14:31;12.15;;;4.95;;
66429;SDS011;53242;51.694;10.006;2023-04-06T13:16:54;13.50;;;5.38;;
66429;SDS011;53242;51.694;10.006;2023-04-06T13:19:16;11.73;;;5.10;;
66429;SDS011;53242;51.694;10.006;2023-04-06T13:21:40;12.02;;;5.40;;
66429;SDS011;53242;51.694;10.006;2023-04-06T13:24:02;12.90;;;5.25;;
66429;SDS011;53242;51.694;10.006;2023-04-06T13:26:26;12.18;;;5.15;;
66429;SDS011;53242;51.694;10.006;2023-04-06T13:28:50;13.93;;;5.10;;
66429;SDS011;53242;51.694;10.006;2023-04-06T13:31:12;11.77;;;4.72;;
66429;SDS011;53242;51.694;10.006;2023-04-06T13:33:35;11.88;;;5.35;;
66429;SDS011;53242;51.694;10.006;2023-04-06T13:35:59;12.27;;;5.00;;
66429;SDS011;53242;51.694;10.006;2023-04-06T13:38:21;13.43;;;5.18;;
66429;SDS011;53242;51.694;10.006;2023-04-06T13:40:46;11.63;;;4.75;;
66429;SDS011;53242;51.694;10.006;2023-04-06T13:43:08;11.45;;;4.85;;
66429;SDS011;53242;51.694;10.006;2023-04-06T13:45:31;16.67;;;5.18;;
66429;SDS011;53242;51.694;10.006;2023-04-06T13:47:53;11.55;;;4.93;;
66429;SDS011;53242;51.694;10.006;2023-04-06T13:50:16;11.60;;;5.03;;
66429;SDS011;53242;51.694;10.006;2023-04-06T13:52:38;11.82;;;4.85;;
66429;SDS011;53242;51.694;10.006;2023-04-06T13:55:01;10.20;;;4.50;;
66429;SDS011;53242;51.694;10.006;2023-04-06T13:57:25;12.25;;;5.30;;
66429;SDS011;53242;51.694;10.006;2023-04-06T13:59:48;14.63;;;5.07;;
66429;SDS011;53242;51.694;10.006;2023-04-06T14:02:12;12.48;;;5.55;;
66429;SDS011;53242;51.694;10.006;2023-04-06T14:04:35;12.00;;;4.93;;
66429;SDS011;53242;51.694;10.006;2023-04-06T14:06:58;14.55;;;5.50;;
66429;SDS011;53242;51.694;10.006;2023-04-06T14:09:21;12.27;;;5.63;;
66429;SDS011;53242;51.694;10.006;2023-04-06T14:11:43;14.68;;;5.97;;
66429;SDS011;53242;51.694;10.006;2023-04-06T14:14:06;12.20;;;4.65;;
66429;SDS011;53242;51.694;10.006;2023-04-06T14:16:29;13.35;;;5.35;;
66429;SDS011;53242;51.694;10.006;2023-04-06T14:18:51;13.57;;;5.35;;
66429;SDS011;53242;51.694;10.006;2023-04-06T14:21:14;12.35;;;5.03;;